Maribel — LAGU6 — position and weather

sailwx.info

Track history (hours):
 
Tides and Currents Weather Stations Pressure Air Temp Water Temp Dewpoint Dewpoint Depression Visibility Wind Speed Wind Dir Waves Ship Positions

Maribel

Last reported at 2016-Sep-25 16:06 UTC. Time now 2016-Sep-30 16:57 UTC.
Position N 24°05' E 119°56'.

Length 228 m; draft 10 m.

Type: Ship. MMSI: 257872000.

Date/timePositionNaut miles runAvg speedWind from/ knotsBaromVisibWave heightAir tempDewpointWater temp
2016-Sep-25 16:06N 24°05' E 119°56'7911.6
2016-Sep-25 09:17N 22°46' E 120°01'2011.3
2016-Sep-25 07:33N 22°33' E 120°17'3 0.4
2016-Sep-24 22:24N 22°32' E 120°20'0 0.0
2016-Sep-24 16:30N 22°32' E 120°20'0 0.0
2016-Sep-24 14:30N 22°32' E 120°20'0 0.0
2016-Sep-24 03:25N 22°32' E 120°20'1 1.1
2016-Sep-24 02:34N 22°33' E 120°19'5 5.1
2016-Sep-24 01:33N 22°32' E 120°14'6 5.7
2016-Sep-24 00:34N 22°28' E 120°09'  
2016-Sep-18 15:32N 01°14' E 103°59'9 9.4
2016-Sep-18 14:32N 01°13' E 103°49'0 0.1
2016-Sep-18 10:32N 01°13' E 103°50'0 0.0
2016-Sep-18 02:31N 01°13' E 103°49'0 0.1
2016-Sep-18 01:19N 01°13' E 103°49'0 0.1
2016-Sep-18 00:27N 01°13' E 103°49'0 0.0
2016-Sep-17 22:29N 01°13' E 103°50'0 0.1
2016-Sep-17 21:20N 01°13' E 103°50'1 1.3
2016-Sep-17 20:33N 01°12' E 103°49'66 9.2
2016-Sep-17 13:19N 01°38' E 102°48'810.5
2016-Sep-17 12:34N 01°41' E 102°41'  
Track history (hours):
 
Tides and Currents Weather Stations Pressure Air Temp Water Temp Dewpoint Dewpoint Depression Visibility Wind Speed Wind Dir Waves Ship Positions

Maribel

Last reported at 2016-Sep-25 16:06 UTC. Time now 2016-Sep-30 16:57 UTC.
Position N 24°05' E 119°56'.

Length 228 m; draft 10 m.

Type: Ship. MMSI: 257872000.

Date/timePositionNaut miles runAvg speedWind from/ knotsBaromVisibWave heightAir tempDewpointWater temp
2016-Sep-25 16:06N 24°05' E 119°56'7911.6
2016-Sep-25 09:17N 22°46' E 120°01'2011.3
2016-Sep-25 07:33N 22°33' E 120°17'3 0.4
2016-Sep-24 22:24N 22°32' E 120°20'0 0.0
2016-Sep-24 16:30N 22°32' E 120°20'0 0.0
2016-Sep-24 14:30N 22°32' E 120°20'0 0.0
2016-Sep-24 03:25N 22°32' E 120°20'1 1.1
2016-Sep-24 02:34N 22°33' E 120°19'5 5.1
2016-Sep-24 01:33N 22°32' E 120°14'6 5.7
2016-Sep-24 00:34N 22°28' E 120°09'  
2016-Sep-18 15:32N 01°14' E 103°59'9 9.4
2016-Sep-18 14:32N 01°13' E 103°49'0 0.1
2016-Sep-18 10:32N 01°13' E 103°50'0 0.0
2016-Sep-18 02:31N 01°13' E 103°49'0 0.1
2016-Sep-18 01:19N 01°13' E 103°49'0 0.1
2016-Sep-18 00:27N 01°13' E 103°49'0 0.0
2016-Sep-17 22:29N 01°13' E 103°50'0 0.1
2016-Sep-17 21:20N 01°13' E 103°50'1 1.3
2016-Sep-17 20:33N 01°12' E 103°49'66 9.2
2016-Sep-17 13:19N 01°38' E 102°48'810.5
2016-Sep-17 12:34N 01°41' E 102°41'  

Dump ship's entire track history